sensor_id;sensor_type;location;lat;lon;timestamp;pressure;altitude;pressure_sealevel;temperature;humidity
64292;BME280;50628;51.008;13.658;2023-09-19T00:03:29;99053.09;;;16.17;100.00
64292;BME280;50628;51.008;13.658;2023-09-19T00:08:31;99049.06;;;16.06;100.00
64292;BME280;50628;51.008;13.658;2023-09-19T00:13:35;99041.78;;;15.93;100.00
64292;BME280;50628;51.008;13.658;2023-09-19T00:18:37;99062.00;;;15.85;100.00
64292;BME280;50628;51.008;13.658;2023-09-19T00:23:39;99050.81;;;15.91;100.00
64292;BME280;50628;51.008;13.658;2023-09-19T00:28:43;99040.03;;;15.86;100.00
64292;BME280;50628;51.008;13.658;2023-09-19T00:33:45;99045.81;;;15.81;100.00
64292;BME280;50628;51.008;13.658;2023-09-19T00:38:49;99032.91;;;15.71;100.00
64292;BME280;50628;51.008;13.658;2023-09-19T00:43:52;99030.22;;;15.79;100.00
64292;BME280;50628;51.008;13.658;2023-09-19T00:48:54;99036.00;;;15.98;100.00
64292;BME280;50628;51.008;13.658;2023-09-19T00:53:58;99029.53;;;16.09;100.00
64292;BME280;50628;51.008;13.658;2023-09-19T00:59:02;99040.63;;;15.96;100.00
64292;BME280;50628;51.008;13.658;2023-09-19T01:04:04;99030.41;;;15.78;100.00
64292;BME280;50628;51.008;13.658;2023-09-19T01:09:06;99042.63;;;15.63;100.00
64292;BME280;50628;51.008;13.658;2023-09-19T01:14:29;99044.06;;;15.65;100.00
64292;BME280;50628;51.008;13.658;2023-09-19T01:20:15;99057.66;;;15.69;100.00
64292;BME280;50628;51.008;13.658;2023-09-19T01:25:33;99059.28;;;15.78;100.00
64292;BME280;50628;51.008;13.658;2023-09-19T01:30:43;99053.16;;;15.86;100.00
64292;BME280;50628;51.008;13.658;2023-09-19T01:35:45;99057.97;;;15.74;100.00
64292;BME280;50628;51.008;13.658;2023-09-19T01:40:57;99053.78;;;15.56;100.00
64292;BME280;50628;51.008;13.658;2023-09-19T01:46:09;99060.13;;;15.62;100.00
64292;BME280;50628;51.008;13.658;2023-09-19T01:51:21;99057.00;;;15.75;100.00
64292;BME280;50628;51.008;13.658;2023-09-19T01:56:30;99044.94;;;15.89;100.00
64292;BME280;50628;51.008;13.658;2023-09-19T02:01:39;99058.63;;;15.99;100.00
64292;BME280;50628;51.008;13.658;2023-09-19T02:06:42;99058.81;;;16.35;100.00
64292;BME280;50628;51.008;13.658;2023-09-19T02:11:43;99057.16;;;16.57;100.00
64292;BME280;50628;51.008;13.658;2023-09-19T02:16:47;99048.41;;;16.80;100.00
64292;BME280;50628;51.008;13.658;2023-09-19T02:21:50;99044.19;;;16.94;100.00
64292;BME280;50628;51.008;13.658;2023-09-19T02:26:52;99034.47;;;17.09;100.00
64292;BME280;50628;51.008;13.658;2023-09-19T02:31:56;99028.56;;;17.22;100.00
64292;BME280;50628;51.008;13.658;2023-09-19T02:36:58;99026.31;;;17.19;100.00
64292;BME280;50628;51.008;13.658;2023-09-19T02:42:00;99037.44;;;17.21;100.00
64292;BME280;50628;51.008;13.658;2023-09-19T02:47:05;99038.88;;;17.23;100.00
64292;BME280;50628;51.008;13.658;2023-09-19T02:52:07;99034.34;;;17.32;100.00
64292;BME280;50628;51.008;13.658;2023-09-19T02:57:09;99045.53;;;17.19;100.00
64292;BME280;50628;51.008;13.658;2023-09-19T03:02:12;99044.34;;;17.22;100.00
64292;BME280;50628;51.008;13.658;2023-09-19T03:07:14;99043.69;;;17.20;100.00
64292;BME280;50628;51.008;13.658;2023-09-19T03:12:18;99059.75;;;17.10;100.00
64292;BME280;50628;51.008;13.658;2023-09-19T03:17:22;99071.66;;;17.06;100.00
64292;BME280;50628;51.008;13.658;2023-09-19T03:22:26;99070.38;;;17.17;100.00
64292;BME280;50628;51.008;13.658;2023-09-19T03:27:28;99072.50;;;17.28;100.00
64292;BME280;50628;51.008;13.658;2023-09-19T03:32:32;99073.06;;;17.23;100.00
64292;BME280;50628;51.008;13.658;2023-09-19T03:37:36;99077.88;;;17.20;100.00
64292;BME280;50628;51.008;13.658;2023-09-19T03:42:38;99074.88;;;17.23;100.00
64292;BME280;50628;51.008;13.658;2023-09-19T03:47:43;99072.25;;;17.23;100.00
64292;BME280;50628;51.008;13.658;2023-09-19T03:52:47;99066.28;;;17.29;100.00
64292;BME280;50628;51.008;13.658;2023-09-19T03:57:49;99068.53;;;17.32;100.00
64292;BME280;50628;51.008;13.658;2023-09-19T04:02:53;99073.25;;;17.22;100.00
64292;BME280;50628;51.008;13.658;2023-09-19T04:07:56;99087.66;;;17.26;100.00
64292;BME280;50628;51.008;13.658;2023-09-19T04:12:58;99096.72;;;17.23;100.00
64292;BME280;50628;51.008;13.658;2023-09-19T04:18:02;99102.34;;;17.20;100.00
64292;BME280;50628;51.008;13.658;2023-09-19T04:23:04;99097.91;;;17.21;100.00
64292;BME280;50628;51.008;13.658;2023-09-19T04:28:06;99107.44;;;17.22;100.00
64292;BME280;50628;51.008;13.658;2023-09-19T04:33:10;99111.00;;;17.14;100.00
64292;BME280;50628;51.008;13.658;2023-09-19T04:38:12;99115.72;;;17.19;100.00
64292;BME280;50628;51.008;13.658;2023-09-19T04:43:15;99128.28;;;17.23;100.00
64292;BME280;50628;51.008;13.658;2023-09-19T04:48:19;99122.97;;;17.17;100.00
64292;BME280;50628;51.008;13.658;2023-09-19T04:53:20;99127.03;;;17.19;100.00
64292;BME280;50628;51.008;13.658;2023-09-19T04:58:22;99134.19;;;17.25;100.00
64292;BME280;50628;51.008;13.658;2023-09-19T05:03:26;99144.72;;;17.25;100.00
64292;BME280;50628;51.008;13.658;2023-09-19T05:08:28;99147.59;;;17.16;100.00
64292;BME280;50628;51.008;13.658;2023-09-19T05:13:29;99151.50;;;17.20;100.00
64292;BME280;50628;51.008;13.658;2023-09-19T05:18:33;99164.13;;;17.24;100.00
64292;BME280;50628;51.008;13.658;2023-09-19T05:23:35;99163.94;;;17.26;100.00
64292;BME280;50628;51.008;13.658;2023-09-19T05:28:37;99169.03;;;17.27;100.00
64292;BME280;50628;51.008;13.658;2023-09-19T05:33:40;99171.28;;;17.30;100.00
64292;BME280;50628;51.008;13.658;2023-09-19T05:38:43;99175.56;;;17.32;100.00
64292;BME280;50628;51.008;13.658;2023-09-19T05:43:45;99193.13;;;17.31;100.00
64292;BME280;50628;51.008;13.658;2023-09-19T05:48:48;99189.16;;;17.35;100.00
64292;BME280;50628;51.008;13.658;2023-09-19T05:53:50;99198.13;;;17.41;100.00
64292;BME280;50628;51.008;13.658;2023-09-19T05:58:52;99194.59;;;17.48;100.00
64292;BME280;50628;51.008;13.658;2023-09-19T06:03:56;99203.22;;;17.42;100.00
64292;BME280;50628;51.008;13.658;2023-09-19T06:08:58;99191.09;;;17.41;100.00
64292;BME280;50628;51.008;13.658;2023-09-19T06:13:59;99185.34;;;17.52;100.00
64292;BME280;50628;51.008;13.658;2023-09-19T06:19:04;99196.03;;;17.51;100.00
64292;BME280;50628;51.008;13.658;2023-09-19T06:24:07;99200.50;;;17.65;100.00
64292;BME280;50628;51.008;13.658;2023-09-19T06:29:09;99210.38;;;17.63;100.00
64292;BME280;50628;51.008;13.658;2023-09-19T06:34:12;99215.09;;;17.68;100.00
64292;BME280;50628;51.008;13.658;2023-09-19T06:39:15;99225.66;;;17.83;100.00
64292;BME280;50628;51.008;13.658;2023-09-19T06:44:17;99231.81;;;17.90;100.00
64292;BME280;50628;51.008;13.658;2023-09-19T06:49:22;99241.69;;;18.03;100.00
64292;BME280;50628;51.008;13.658;2023-09-19T06:54:24;99248.41;;;18.05;100.00
64292;BME280;50628;51.008;13.658;2023-09-19T06:59:31;99260.00;;;18.26;100.00
64292;BME280;50628;51.008;13.658;2023-09-19T07:04:34;99261.13;;;18.53;100.00
64292;BME280;50628;51.008;13.658;2023-09-19T07:09:36;99264.81;;;18.58;100.00
64292;BME280;50628;51.008;13.658;2023-09-19T07:14:38;99279.44;;;18.61;100.00
64292;BME280;50628;51.008;13.658;2023-09-19T07:19:42;99284.63;;;18.54;100.00
64292;BME280;50628;51.008;13.658;2023-09-19T07:24:44;99290.28;;;18.51;100.00
64292;BME280;50628;51.008;13.658;2023-09-19T07:29:46;99292.44;;;18.63;100.00
64292;BME280;50628;51.008;13.658;2023-09-19T07:34:49;99299.91;;;18.59;100.00
64292;BME280;50628;51.008;13.658;2023-09-19T07:39:51;99307.41;;;18.62;100.00
64292;BME280;50628;51.008;13.658;2023-09-19T07:44:53;99321.63;;;18.61;100.00
64292;BME280;50628;51.008;13.658;2023-09-19T07:49:56;99316.66;;;18.88;100.00
64292;BME280;50628;51.008;13.658;2023-09-19T07:54:58;99322.28;;;18.85;100.00
64292;BME280;50628;51.008;13.658;2023-09-19T08:00:02;99310.13;;;18.69;100.00
64292;BME280;50628;51.008;13.658;2023-09-19T08:05:13;99316.84;;;18.86;100.00
64292;BME280;50628;51.008;13.658;2023-09-19T08:10:17;99310.09;;;19.27;100.00
64292;BME280;50628;51.008;13.658;2023-09-19T08:15:20;99317.56;;;19.44;100.00
64292;BME280;50628;51.008;13.658;2023-09-19T08:20:23;99321.78;;;19.17;100.00
64292;BME280;50628;51.008;13.658;2023-09-19T08:25:25;99314.72;;;19.46;100.00
64292;BME280;50628;51.008;13.658;2023-09-19T08:30:27;99311.41;;;19.37;100.00
64292;BME280;50628;51.008;13.658;2023-09-19T08:35:32;99337.06;;;19.72;100.00
64292;BME280;50628;51.008;13.658;2023-09-19T08:40:37;99326.41;;;19.58;100.00
64292;BME280;50628;51.008;13.658;2023-09-19T08:45:40;99334.56;;;19.63;100.00
64292;BME280;50628;51.008;13.658;2023-09-19T08:50:49;99343.63;;;19.82;100.00
64292;BME280;50628;51.008;13.658;2023-09-19T08:55:51;99344.22;;;19.78;100.00
64292;BME280;50628;51.008;13.658;2023-09-19T09:00:57;99343.22;;;19.79;100.00
64292;BME280;50628;51.008;13.658;2023-09-19T09:06:03;99334.56;;;19.92;100.00
64292;BME280;50628;51.008;13.658;2023-09-19T09:11:05;99343.19;;;20.07;100.00
64292;BME280;50628;51.008;13.658;2023-09-19T09:16:08;99336.47;;;20.04;100.00
64292;BME280;50628;51.008;13.658;2023-09-19T09:21:11;99347.03;;;20.04;100.00
64292;BME280;50628;51.008;13.658;2023-09-19T09:26:16;99343.25;;;20.20;100.00
64292;BME280;50628;51.008;13.658;2023-09-19T09:31:24;99349.06;;;19.74;100.00
64292;BME280;50628;51.008;13.658;2023-09-19T09:36:38;99360.16;;;19.91;100.00
64292;BME280;50628;51.008;13.658;2023-09-19T09:41:42;99364.75;;;19.76;100.00
64292;BME280;50628;51.008;13.658;2023-09-19T09:46:44;99367.56;;;19.74;100.00
64292;BME280;50628;51.008;13.658;2023-09-19T09:52:21;99359.59;;;19.67;100.00
64292;BME280;50628;51.008;13.658;2023-09-19T09:57:24;99366.66;;;19.88;100.00
64292;BME280;50628;51.008;13.658;2023-09-19T10:02:27;99375.41;;;19.96;100.00
64292;BME280;50628;51.008;13.658;2023-09-19T10:07:35;99365.13;;;20.01;100.00
64292;BME280;50628;51.008;13.658;2023-09-19T10:12:42;99367.56;;;20.44;100.00
64292;BME280;50628;51.008;13.658;2023-09-19T10:17:44;99354.88;;;20.67;100.00
64292;BME280;50628;51.008;13.658;2023-09-19T10:22:48;99367.84;;;20.56;100.00
64292;BME280;50628;51.008;13.658;2023-09-19T10:28:00;99373.34;;;20.26;100.00
64292;BME280;50628;51.008;13.658;2023-09-19T10:33:04;99379.53;;;20.40;100.00
64292;BME280;50628;51.008;13.658;2023-09-19T10:38:10;99365.34;;;20.47;100.00
64292;BME280;50628;51.008;13.658;2023-09-19T10:43:15;99374.88;;;20.48;100.00
64292;BME280;50628;51.008;13.658;2023-09-19T10:48:20;99361.22;;;20.86;100.00
64292;BME280;50628;51.008;13.658;2023-09-19T10:53:29;99365.97;;;21.04;100.00
64292;BME280;50628;51.008;13.658;2023-09-19T10:58:33;99349.53;;;21.55;100.00
64292;BME280;50628;51.008;13.658;2023-09-19T11:03:39;99359.69;;;21.52;100.00
64292;BME280;50628;51.008;13.658;2023-09-19T11:08:56;99372.25;;;20.96;100.00
64292;BME280;50628;51.008;13.658;2023-09-19T11:14:13;99351.91;;;21.24;100.00
64292;BME280;50628;51.008;13.658;2023-09-19T11:19:15;99347.06;;;21.74;96.85
64292;BME280;50628;51.008;13.658;2023-09-19T11:24:31;99352.09;;;22.09;84.04
64292;BME280;50628;51.008;13.658;2023-09-19T11:29:36;99356.41;;;21.90;77.13
64292;BME280;50628;51.008;13.658;2023-09-19T11:34:41;99363.72;;;22.21;79.69
64292;BME280;50628;51.008;13.658;2023-09-19T11:40:05;99362.47;;;22.23;80.83
64292;BME280;50628;51.008;13.658;2023-09-19T11:50:57;99353.75;;;22.03;80.57
64292;BME280;50628;51.008;13.658;2023-09-19T11:56:04;99350.03;;;22.24;81.71
64292;BME280;50628;51.008;13.658;2023-09-19T12:01:12;99328.19;;;22.74;77.33
64292;BME280;50628;51.008;13.658;2023-09-19T12:06:15;99346.41;;;22.05;86.80
64292;BME280;50628;51.008;13.658;2023-09-19T12:11:21;99351.47;;;22.20;88.38
64292;BME280;50628;51.008;13.658;2023-09-19T12:16:23;99351.75;;;22.50;95.47
64292;BME280;50628;51.008;13.658;2023-09-19T12:21:28;99340.13;;;21.66;100.00
64292;BME280;50628;51.008;13.658;2023-09-19T12:26:39;99340.41;;;22.36;95.05
64292;BME280;50628;51.008;13.658;2023-09-19T12:31:50;99347.47;;;22.56;92.78
64292;BME280;50628;51.008;13.658;2023-09-19T12:37:03;99343.88;;;22.37;91.33
64292;BME280;50628;51.008;13.658;2023-09-19T12:42:13;99341.53;;;22.60;90.80
64292;BME280;50628;51.008;13.658;2023-09-19T12:47:16;99340.84;;;23.10;87.82
64292;BME280;50628;51.008;13.658;2023-09-19T12:52:20;99344.41;;;23.54;81.74
64292;BME280;50628;51.008;13.658;2023-09-19T12:57:27;99338.94;;;23.49;83.59
64292;BME280;50628;51.008;13.658;2023-09-19T13:02:29;99335.47;;;24.10;78.47
64292;BME280;50628;51.008;13.658;2023-09-19T13:07:40;99337.69;;;23.26;80.44
64292;BME280;50628;51.008;13.658;2023-09-19T13:12:45;99337.22;;;23.54;75.73
64292;BME280;50628;51.008;13.658;2023-09-19T13:17:48;99349.78;;;23.16;73.58
64292;BME280;50628;51.008;13.658;2023-09-19T13:22:51;99338.09;;;22.98;71.61
64292;BME280;50628;51.008;13.658;2023-09-19T13:27:57;99332.53;;;23.57;67.15
64292;BME280;50628;51.008;13.658;2023-09-19T13:33:07;99332.56;;;23.50;68.68
64292;BME280;50628;51.008;13.658;2023-09-19T13:38:10;99333.22;;;23.45;70.26
64292;BME280;50628;51.008;13.658;2023-09-19T13:43:14;99332.53;;;23.57;69.50
64292;BME280;50628;51.008;13.658;2023-09-19T13:48:16;99333.50;;;23.37;69.17
64292;BME280;50628;51.008;13.658;2023-09-19T13:53:30;99323.78;;;23.74;67.27
64292;BME280;50628;51.008;13.658;2023-09-19T13:58:33;99335.66;;;23.47;62.36
64292;BME280;50628;51.008;13.658;2023-09-19T14:03:36;99336.41;;;23.04;63.34
64292;BME280;50628;51.008;13.658;2023-09-19T14:08:38;99329.56;;;23.65;60.35
64292;BME280;50628;51.008;13.658;2023-09-19T14:13:41;99328.81;;;24.01;62.72
64292;BME280;50628;51.008;13.658;2023-09-19T14:18:47;99328.53;;;23.66;64.76
64292;BME280;50628;51.008;13.658;2023-09-19T14:23:49;99329.41;;;24.03;62.89
64292;BME280;50628;51.008;13.658;2023-09-19T14:28:52;99323.84;;;25.02;53.42
64292;BME280;50628;51.008;13.658;2023-09-19T14:33:54;99308.56;;;25.86;49.69
64292;BME280;50628;51.008;13.658;2023-09-19T14:38:57;99309.91;;;25.18;50.30
64292;BME280;50628;51.008;13.658;2023-09-19T14:44:02;99320.03;;;24.98;48.80
64292;BME280;50628;51.008;13.658;2023-09-19T14:49:05;99307.13;;;23.61;52.60
64292;BME280;50628;51.008;13.658;2023-09-19T14:54:07;99302.59;;;25.14;49.77
64292;BME280;50628;51.008;13.658;2023-09-19T14:59:10;99305.72;;;26.17;47.69
64292;BME280;50628;51.008;13.658;2023-09-19T15:04:13;99307.59;;;26.04;46.91
64292;BME280;50628;51.008;13.658;2023-09-19T15:09:15;99318.31;;;25.03;48.28
64292;BME280;50628;51.008;13.658;2023-09-19T15:14:20;99305.41;;;24.28;50.84
64292;BME280;50628;51.008;13.658;2023-09-19T15:19:22;99317.13;;;23.40;52.78
64292;BME280;50628;51.008;13.658;2023-09-19T15:24:24;99315.03;;;23.24;54.12
64292;BME280;50628;51.008;13.658;2023-09-19T15:29:28;99304.88;;;23.39;54.10
64292;BME280;50628;51.008;13.658;2023-09-19T15:34:30;99301.28;;;23.52;54.99
64292;BME280;50628;51.008;13.658;2023-09-19T15:39:32;99293.88;;;23.36;55.42
64292;BME280;50628;51.008;13.658;2023-09-19T15:44:36;99300.88;;;23.05;55.08
64292;BME280;50628;51.008;13.658;2023-09-19T15:49:38;99298.72;;;22.88;55.75
64292;BME280;50628;51.008;13.658;2023-09-19T15:54:40;99306.41;;;22.65;54.65
64292;BME280;50628;51.008;13.658;2023-09-19T15:59:46;99306.97;;;22.35;54.98
64292;BME280;50628;51.008;13.658;2023-09-19T16:04:48;99312.31;;;22.22;55.17
64292;BME280;50628;51.008;13.658;2023-09-19T16:09:50;99310.94;;;21.99;54.68
64292;BME280;50628;51.008;13.658;2023-09-19T16:14:55;99307.88;;;22.02;55.26
64292;BME280;50628;51.008;13.658;2023-09-19T16:19:56;99314.00;;;21.90;55.83
64292;BME280;50628;51.008;13.658;2023-09-19T16:24:58;99321.00;;;21.77;55.54
64292;BME280;50628;51.008;13.658;2023-09-19T16:30:02;99316.09;;;21.61;55.74
64292;BME280;50628;51.008;13.658;2023-09-19T16:35:06;99321.19;;;21.36;55.92
64292;BME280;50628;51.008;13.658;2023-09-19T16:40:10;99328.91;;;21.11;55.85
64292;BME280;50628;51.008;13.658;2023-09-19T16:45:14;99320.78;;;20.99;55.85
64292;BME280;50628;51.008;13.658;2023-09-19T16:50:16;99346.78;;;20.82;54.75
64292;BME280;50628;51.008;13.658;2023-09-19T16:55:18;99357.69;;;20.66;54.41
64292;BME280;50628;51.008;13.658;2023-09-19T17:00:22;99353.63;;;20.57;55.17
64292;BME280;50628;51.008;13.658;2023-09-19T17:05:26;99356.38;;;20.42;55.17
64292;BME280;50628;51.008;13.658;2023-09-19T17:10:30;99363.06;;;20.38;54.12
64292;BME280;50628;51.008;13.658;2023-09-19T17:15:34;99366.63;;;20.23;53.97
64292;BME280;50628;51.008;13.658;2023-09-19T17:20:40;99360.25;;;20.04;55.26
64292;BME280;50628;51.008;13.658;2023-09-19T17:25:42;99364.28;;;20.00;55.24
64292;BME280;50628;51.008;13.658;2023-09-19T17:30:46;99374.03;;;20.00;56.32
64292;BME280;50628;51.008;13.658;2023-09-19T17:35:50;99377.72;;;19.77;56.79
64292;BME280;50628;51.008;13.658;2023-09-19T17:40:52;99379.50;;;19.70;57.16
64292;BME280;50628;51.008;13.658;2023-09-19T17:45:55;99379.38;;;19.57;59.13
64292;BME280;50628;51.008;13.658;2023-09-19T17:51:00;99376.38;;;19.38;61.24
64292;BME280;50628;51.008;13.658;2023-09-19T17:56:03;99388.38;;;19.19;64.17
64292;BME280;50628;51.008;13.658;2023-09-19T18:01:11;99393.94;;;18.88;74.77
64292;BME280;50628;51.008;13.658;2023-09-19T18:06:14;99406.59;;;18.78;81.24
64292;BME280;50628;51.008;13.658;2023-09-19T18:11:18;99417.41;;;18.53;84.00
64292;BME280;50628;51.008;13.658;2023-09-19T18:16:26;99425.97;;;18.26;95.61
64292;BME280;50628;51.008;13.658;2023-09-19T18:21:32;99438.25;;;17.81;100.00
64292;BME280;50628;51.008;13.658;2023-09-19T18:26:34;99442.78;;;17.64;100.00
64292;BME280;50628;51.008;13.658;2023-09-19T18:31:38;99445.91;;;17.67;100.00
64292;BME280;50628;51.008;13.658;2023-09-19T18:36:39;99447.53;;;17.45;100.00
64292;BME280;50628;51.008;13.658;2023-09-19T18:41:41;99445.25;;;17.42;100.00
64292;BME280;50628;51.008;13.658;2023-09-19T18:46:46;99454.25;;;17.25;100.00
64292;BME280;50628;51.008;13.658;2023-09-19T18:51:48;99455.66;;;17.36;100.00
64292;BME280;50628;51.008;13.658;2023-09-19T18:56:50;99463.59;;;17.27;100.00
64292;BME280;50628;51.008;13.658;2023-09-19T19:01:53;99469.72;;;17.20;100.00
64292;BME280;50628;51.008;13.658;2023-09-19T19:06:56;99464.22;;;17.06;100.00
64292;BME280;50628;51.008;13.658;2023-09-19T19:11:58;99476.38;;;17.07;100.00
64292;BME280;50628;51.008;13.658;2023-09-19T19:17:02;99480.66;;;17.00;100.00
64292;BME280;50628;51.008;13.658;2023-09-19T19:22:04;99483.53;;;16.82;100.00
64292;BME280;50628;51.008;13.658;2023-09-19T19:27:06;99484.03;;;16.78;100.00
64292;BME280;50628;51.008;13.658;2023-09-19T19:32:10;99487.22;;;16.57;100.00
64292;BME280;50628;51.008;13.658;2023-09-19T19:37:13;99480.66;;;16.44;100.00
64292;BME280;50628;51.008;13.658;2023-09-19T19:42:15;99483.97;;;16.38;100.00
64292;BME280;50628;51.008;13.658;2023-09-19T19:47:18;99475.97;;;16.23;100.00
64292;BME280;50628;51.008;13.658;2023-09-19T19:52:20;99481.69;;;16.19;100.00
64292;BME280;50628;51.008;13.658;2023-09-19T19:57:22;99487.94;;;16.10;100.00
64292;BME280;50628;51.008;13.658;2023-09-19T20:02:26;99485.34;;;15.93;100.00
64292;BME280;50628;51.008;13.658;2023-09-19T20:07:28;99477.13;;;15.88;100.00
64292;BME280;50628;51.008;13.658;2023-09-19T20:12:30;99475.47;;;15.79;100.00
64292;BME280;50628;51.008;13.658;2023-09-19T20:17:34;99484.63;;;15.67;100.00
64292;BME280;50628;51.008;13.658;2023-09-19T20:22:36;99481.53;;;15.63;100.00
64292;BME280;50628;51.008;13.658;2023-09-19T20:27:39;99487.31;;;15.75;100.00
64292;BME280;50628;51.008;13.658;2023-09-19T20:32:42;99484.84;;;15.73;100.00
64292;BME280;50628;51.008;13.658;2023-09-19T20:37:44;99487.25;;;15.58;100.00
64292;BME280;50628;51.008;13.658;2023-09-19T20:42:50;99480.34;;;15.49;100.00
64292;BME280;50628;51.008;13.658;2023-09-19T20:47:55;99479.66;;;15.23;100.00
64292;BME280;50628;51.008;13.658;2023-09-19T20:52:57;99476.50;;;15.19;100.00
64292;BME280;50628;51.008;13.658;2023-09-19T20:57:59;99477.38;;;14.85;100.00
64292;BME280;50628;51.008;13.658;2023-09-19T21:03:03;99488.31;;;14.73;100.00
64292;BME280;50628;51.008;13.658;2023-09-19T21:08:05;99480.53;;;14.55;100.00
64292;BME280;50628;51.008;13.658;2023-09-19T21:13:07;99491.13;;;14.79;100.00
64292;BME280;50628;51.008;13.658;2023-09-19T21:18:11;99483.88;;;14.73;100.00
64292;BME280;50628;51.008;13.658;2023-09-19T21:23:13;99484.31;;;14.60;100.00
64292;BME280;50628;51.008;13.658;2023-09-19T21:28:15;99477.72;;;14.56;100.00
64292;BME280;50628;51.008;13.658;2023-09-19T21:33:18;99473.94;;;14.85;100.00
64292;BME280;50628;51.008;13.658;2023-09-19T21:38:21;99470.56;;;15.01;100.00
64292;BME280;50628;51.008;13.658;2023-09-19T21:43:23;99475.22;;;14.46;100.00
64292;BME280;50628;51.008;13.658;2023-09-19T21:48:26;99474.06;;;14.23;100.00
64292;BME280;50628;51.008;13.658;2023-09-19T21:53:28;99475.09;;;14.04;100.00
64292;BME280;50628;51.008;13.658;2023-09-19T21:58:32;99475.88;;;14.22;100.00
64292;BME280;50628;51.008;13.658;2023-09-19T22:03:38;99477.81;;;14.20;100.00
64292;BME280;50628;51.008;13.658;2023-09-19T22:08:40;99479.88;;;14.09;100.00
64292;BME280;50628;51.008;13.658;2023-09-19T22:13:42;99472.03;;;13.91;100.00
64292;BME280;50628;51.008;13.658;2023-09-19T22:18:46;99463.31;;;13.82;100.00
64292;BME280;50628;51.008;13.658;2023-09-19T22:23:48;99465.47;;;13.87;100.00
64292;BME280;50628;51.008;13.658;2023-09-19T22:28:54;99452.22;;;13.88;100.00
64292;BME280;50628;51.008;13.658;2023-09-19T22:33:58;99458.22;;;13.80;100.00
64292;BME280;50628;51.008;13.658;2023-09-19T22:39:00;99451.06;;;13.64;100.00
64292;BME280;50628;51.008;13.658;2023-09-19T22:44:04;99454.66;;;13.81;100.00
64292;BME280;50628;51.008;13.658;2023-09-19T22:49:09;99443.03;;;14.54;100.00
64292;BME280;50628;51.008;13.658;2023-09-19T22:54:17;99452.00;;;14.86;100.00
64292;BME280;50628;51.008;13.658;2023-09-19T22:59:25;99453.69;;;14.95;100.00
64292;BME280;50628;51.008;13.658;2023-09-19T23:04:28;99450.41;;;15.01;100.00
64292;BME280;50628;51.008;13.658;2023-09-19T23:09:31;99448.94;;;14.99;100.00
64292;BME280;50628;51.008;13.658;2023-09-19T23:14:35;99453.69;;;15.03;100.00
64292;BME280;50628;51.008;13.658;2023-09-19T23:19:40;99457.47;;;15.01;100.00
64292;BME280;50628;51.008;13.658;2023-09-19T23:24:42;99465.16;;;14.60;100.00
64292;BME280;50628;51.008;13.658;2023-09-19T23:29:44;99462.22;;;14.37;100.00
64292;BME280;50628;51.008;13.658;2023-09-19T23:34:48;99461.69;;;14.33;100.00
64292;BME280;50628;51.008;13.658;2023-09-19T23:39:50;99454.25;;;14.73;100.00
64292;BME280;50628;51.008;13.658;2023-09-19T23:44:52;99455.09;;;14.81;100.00
64292;BME280;50628;51.008;13.658;2023-09-19T23:49:56;99460.19;;;14.83;100.00
64292;BME280;50628;51.008;13.658;2023-09-19T23:54:58;99463.81;;;14.90;100.00
